This is the latest recevied weather packets stored in our database for station/object EB2EMZ-14. If no packets are shown the sender has not sent any weather packets the latest 10 day(s).
| Time | Temp. | Humidity | Pressure | Rain* | Wind** | Luminosity | Snow |
|---|---|---|---|---|---|---|---|
| 1777731316 | 16.11° C | 73% | 1014.7 hPa | 3.56 mm | - | 0 W/m² | - |
| 1777731016 | 16.67° C | 71% | 1014.6 hPa | 3.56 mm | - | 0 W/m² | - |
| 1777730716 | 17.22° C | 69% | 1014.6 hPa | 3.05 mm | - | 0 W/m² | - |
| 1777730417 | 18.33° C | 66% | 1014.6 hPa | 2.03 mm | - | 0 W/m² | - |
| 1777730116 | 19.44° C | 63% | 1014.6 hPa | 0.51 mm | - | 0 W/m² | - |
| 1777729816 | 20° C | 63% | 1014.5 hPa | 0 mm | - | 0 W/m² | - |
| 1777729516 | 21.11° C | 62% | 1014.5 hPa | 0 mm | - | 0 W/m² | - |
| 1777729216 | 21.11° C | 62% | 1014.4 hPa | 0 mm | - | 0 W/m² | - |
| 1777728916 | 21.11° C | 64% | 1014.4 hPa | 0 mm | - | 0 W/m² | - |
| 1777728616 | 20.56° C | 66% | 1014.6 hPa | 0 mm | - | 0 W/m² | - |
| 1777728316 | 20° C | 67% | 1014.6 hPa | 0 mm | - | 0 W/m² | - |
| 1777728016 | 19.44° C | 68% | 1014.6 hPa | 0 mm | - | 0 W/m² | - |
| 1777727716 | 18.89° C | 68% | 1014.6 hPa | 0 mm | - | 0 W/m² | - |
| 1777727415 | 19.44° C | 68% | 1014.7 hPa | 0 mm | - | 0 W/m² | - |
| 1777727116 | 19.44° C | 67% | 1014.7 hPa | 0 mm | - | 0 W/m² | - |
| 1777726817 | 19.44° C | 67% | 1014.7 hPa | 0 mm | - | 0 W/m² | - |
| 1777726516 | 20° C | 67% | 1014.8 hPa | 0 mm | - | 0 W/m² | - |
| 1777726216 | 20° C | 67% | 1014.8 hPa | 0 mm | - | 0 W/m² | - |
| 1777725916 | 20.56° C | 67% | 1014.7 hPa | 0 mm | - | 0 W/m² | - |
| 1777725617 | 21.11° C | 67% | 1014.7 hPa | 0 mm | - | 0 W/m² | - |
| 1777725316 | 21.11° C | 67% | 1014.6 hPa | 0 mm | - | 0 W/m² | - |
| 1777725016 | 21.11° C | 69% | 1014.6 hPa | 0 mm | - | 0 W/m² | - |
| 1777724715 | 20.56° C | 70% | 1014.5 hPa | 0 mm | - | 0 W/m² | - |
| 1777724417 | 20° C | 70% | 1014.6 hPa | 0 mm | - | 0 W/m² | - |
| 1777724116 | 20° C | 71% | 1014.6 hPa | 0 mm | - | 0 W/m² | - |
* Rain latest hour (hover to see other rain measurements)
** Current wind speed in m/s (hover to see current wind gust speed)